Time;durP1;ratioP1;P1;durP2;ratioP2;P2;SDS_P1;SDS_P2;PMS_P1;PMS_P2;Temp;Humidity;BMP_temperature;BMP_pressure;BME280_temperature;BME280_humidity;BME280_pressure;Samples;Min_cycle;Max_cycle;Signal;HPM_P1;HPM_P2
2022/01/19 00:01:23;;;;;;;6.95;3.08;;;;;;;0.11;77.64;97212.09;4984790;28;20489;-43
2022/01/19 00:03:51;;;;;;;6.45;2.80;;;;;;;0.15;77.94;97214.03;4973598;28;20077;-45
2022/01/19 00:06:18;;;;;;;10.13;2.80;;;;;;;0.04;77.74;97190.94;4976035;28;20061;-43
2022/01/19 00:08:45;;;;;;;8.82;2.50;;;;;;;0.02;78.04;97178.91;4992916;28;20043;-43
2022/01/19 00:11:13;;;;;;;6.38;2.80;;;;;;;-0.03;78.02;97174.28;4984506;28;20051;-44
2022/01/19 00:13:40;;;;;;;7.78;2.80;;;;;;;-0.09;78.93;97178.69;4973688;28;20046;-44
2022/01/19 00:16:08;;;;;;;8.23;2.53;;;;;;;-0.05;79.11;97182.47;4972615;28;20057;-44
2022/01/19 00:18:35;;;;;;;8.73;3.33;;;;;;;-0.10;79.02;97189.53;4991485;28;20065;-46
2022/01/19 00:21:02;;;;;;;9.43;3.30;;;;;;;-0.07;78.85;97183.75;4978209;28;20050;-42
2022/01/19 00:23:29;;;;;;;13.32;3.00;;;;;;;-0.08;78.79;97177.63;4973149;28;20054;-46
2022/01/19 00:25:56;;;;;;;8.65;3.47;;;;;;;-0.06;78.85;97180.06;4973396;28;20058;-42
2022/01/19 00:28:23;;;;;;;9.23;3.00;;;;;;;-0.13;79.00;97182.03;4987127;28;20459;-42
2022/01/19 00:30:51;;;;;;;9.50;3.00;;;;;;;-0.08;79.01;97179.47;4990815;28;20412;-45
2022/01/19 00:33:19;;;;;;;6.65;2.80;;;;;;;-0.05;79.11;97182.47;4991218;28;20069;-45
2022/01/19 00:35:48;;;;;;;8.38;2.70;;;;;;;-0.30;80.73;97168.63;4992594;28;20046;-42
2022/01/19 00:38:16;;;;;;;6.18;2.50;;;;;;;-0.06;79.46;97161.44;4987994;28;20400;-44
2022/01/19 00:40:48;;;;;;;6.25;2.65;;;;;;;-0.05;78.37;97165.72;4976414;28;20038;-44
2022/01/19 00:43:16;;;;;;;8.43;3.10;;;;;;;-0.28;80.03;97162.03;4992590;28;20146;-45
2022/01/19 00:45:44;;;;;;;8.00;3.25;;;;;;;-0.16;80.12;97154.06;4991555;28;20555;-42
2022/01/19 00:48:27;;;;;;;10.27;3.05;;;;;;;-0.27;80.66;97138.91;4982883;28;20094;-44
2022/01/19 00:50:55;;;;;;;8.48;2.78;;;;;;;-0.10;78.68;97141.66;4972767;28;20125;-44
2022/01/19 00:53:22;;;;;;;9.48;4.28;;;;;;;-0.06;78.73;97142.81;4973125;28;20058;-47
2022/01/19 00:55:49;;;;;;;9.80;2.55;;;;;;;-0.93;83.73;97140.88;4979769;28;20105;-44
2022/01/19 00:58:17;;;;;;;7.15;3.17;;;;;;;-0.63;81.90;97132.81;4992583;28;20051;-44
2022/01/19 01:00:44;;;;;;;7.72;2.60;;;;;;;-0.29;80.45;97128.53;4989885;28;20056;-44
2022/01/19 01:03:11;;;;;;;11.52;2.88;;;;;;;-0.26;79.93;97116.59;4973083;28;20049;-42
2022/01/19 01:05:39;;;;;;;8.00;2.97;;;;;;;-0.43;81.51;97116.50;4974247;28;20058;-42
2022/01/19 01:08:06;;;;;;;9.60;2.63;;;;;;;-0.14;79.68;97109.41;4990499;28;20053;-46
2022/01/19 01:10:41;;;;;;;9.20;2.90;;;;;;;-0.31;80.13;97103.19;4987857;28;20086;-45
2022/01/19 01:15:24;;;;;;;8.63;2.90;;;;;;;-0.18;79.82;97104.78;4976560;28;20133;-43
2022/01/19 01:16:30;;;;;;;6.47;3.10;;;;;;;-0.34;80.42;97099.16;4981169;28;20038;-46
2022/01/19 01:18:58;;;;;;;11.10;3.00;;;;;;;-0.86;83.65;97088.44;4994631;28;20046;-46
2022/01/19 01:21:25;;;;;;;6.25;2.80;;;;;;;-0.62;82.43;97081.25;4994411;28;20042;-43
2022/01/19 01:23:52;;;;;;;10.60;3.60;;;;;;;-0.54;82.55;97072.13;4990535;28;20051;-43
2022/01/19 01:26:19;;;;;;;9.20;3.85;;;;;;;-0.46;81.54;97066.44;4977848;28;20496;-45
2022/01/19 01:28:46;;;;;;;10.18;3.00;;;;;;;-0.43;81.34;97057.19;4995085;28;20042;-43
2022/01/19 01:31:14;;;;;;;7.70;2.65;;;;;;;-0.50;81.14;97047.50;4989888;28;20051;-44
2022/01/19 01:33:42;;;;;;;8.48;3.08;;;;;;;-0.44;81.34;97051.06;4975147;28;20491;-45
2022/01/19 01:36:11;;;;;;;6.22;2.67;;;;;;;-0.37;80.63;97061.59;4974828;28;20038;-44
2022/01/19 01:38:38;;;;;;;9.30;2.95;;;;;;;-1.10;85.01;97057.59;4994107;28;20038;-43
2022/01/19 01:41:14;;;;;;;6.60;2.70;;;;;;;-0.95;84.76;97057.94;4973601;28;20461;-44
2022/01/19 01:43:49;;;;;;;8.63;2.95;;;;;;;-0.89;85.01;97043.72;4974724;28;20575;-45
2022/01/19 01:46:31;;;;;;;9.25;4.10;;;;;;;-0.32;81.00;97059.84;4976061;28;20130;-44
2022/01/19 01:48:59;;;;;;;9.43;3.53;;;;;;;-0.17;79.85;97051.34;4974734;28;20110;-43
2022/01/19 01:54:11;;;;;;;9.45;3.40;;;;;;;-0.10;79.38;97040.56;4974689;28;20047;-43
2022/01/19 01:56:38;;;;;;;11.68;3.40;;;;;;;-0.04;79.23;97028.97;4975698;28;20047;-44
2022/01/19 01:59:09;;;;;;;9.85;3.05;;;;;;;-0.17;79.25;97018.63;4974649;28;20118;-46
2022/01/19 02:01:41;;;;;;;8.60;3.70;;;;;;;-0.49;81.49;97009.25;4983084;28;20050;-43
2022/01/19 02:04:12;;;;;;;10.82;3.90;;;;;;;-0.23;79.84;96999.09;4990511;28;20404;-44
2022/01/19 02:07:30;;;;;;;10.93;3.75;;;;;;;-0.26;79.90;96983.59;4993398;28;20468;-45
2022/01/19 02:09:37;;;;;;;9.57;3.28;;;;;;;-0.40;80.55;96984.94;4994762;28;20585;-47
2022/01/19 02:23:22;;;;;;;8.60;3.80;;;;;;;-0.46;80.35;96946.81;5006485;28;20042;-47
2022/01/19 02:25:53;;;;;;;16.35;4.63;;;;;;;-0.48;79.84;96943.59;5011964;28;20077;-46
2022/01/19 02:41:45;;;;;;;7.40;3.70;;;;;;;-0.48;80.07;96922.34;5004933;28;20129;-49
2022/01/19 02:44:26;;;;;;;13.15;3.65;;;;;;;-0.41;80.06;96917.66;5012336;28;20211;-47
2022/01/19 02:49:21;;;;;;;12.05;3.55;;;;;;;-1.03;83.33;96917.53;5013036;28;20475;-45
2022/01/19 02:51:50;;;;;;;12.00;3.92;;;;;;;-0.56;80.66;96920.84;4997893;28;20045;-45
2022/01/19 02:54:22;;;;;;;10.80;4.13;;;;;;;-0.54;81.82;96912.63;4996738;28;20038;-44
2022/01/19 02:56:53;;;;;;;14.88;4.10;;;;;;;-0.39;80.28;96904.97;5012131;28;20133;-45
2022/01/19 02:59:28;;;;;;;7.68;4.00;;;;;;;-0.38;79.47;96903.91;5012206;28;20403;-48
2022/01/19 03:10:12;;;;;;;10.70;4.20;;;;;;;-1.42;86.14;96917.22;5006145;28;20660;-46
2022/01/19 03:12:39;;;;;;;10.98;4.20;;;;;;;-1.11;84.99;96925.84;5010845;28;20053;-45
2022/01/19 03:15:08;;;;;;;14.45;4.78;;;;;;;-0.84;83.17;96916.31;5012106;28;20454;-45
2022/01/19 03:17:35;;;;;;;11.80;3.90;;;;;;;-1.42;85.51;96917.22;5010975;28;20045;-50
2022/01/19 03:20:03;;;;;;;8.20;3.50;;;;;;;-1.51;85.92;96914.09;5011166;28;20061;-46
2022/01/19 03:22:37;;;;;;;12.27;4.00;;;;;;;-1.72;86.79;96907.53;5007370;28;20069;-45
2022/01/19 03:25:11;;;;;;;11.85;4.65;;;;;;;-2.17;89.80;96907.22;4993212;28;20134;-45
2022/01/19 03:27:46;;;;;;;9.00;3.90;;;;;;;-1.36;85.10;96902.22;4992215;28;20050;-46
2022/01/19 03:30:18;;;;;;;10.00;4.22;;;;;;;-1.00;82.96;96904.56;5011143;28;20411;-45
2022/01/19 03:32:46;;;;;;;10.55;4.38;;;;;;;-1.24;84.82;96913.59;5008015;28;20050;-45
2022/01/19 03:35:14;;;;;;;15.15;5.13;;;;;;;-0.92;83.62;96906.03;4991228;28;20046;-46
2022/01/19 03:37:42;;;;;;;14.23;5.32;;;;;;;-1.15;85.40;96909.56;4991700;28;20046;-46
2022/01/19 03:40:10;;;;;;;11.90;5.40;;;;;;;-1.31;85.94;96905.75;4994922;28;20532;-48
2022/01/19 03:42:38;;;;;;;15.20;5.20;;;;;;;-1.78;88.78;96905.78;5010934;28;20076;-45
2022/01/19 03:45:09;;;;;;;13.10;5.40;;;;;;;-1.61;87.44;96902.44;5012198;28;20041;-48
2022/01/19 03:47:55;;;;;;;13.27;4.20;;;;;;;-1.74;87.39;96891.00;5011151;28;20402;-45
2022/01/19 03:50:21;;;;;;;10.18;4.55;;;;;;;-1.41;86.58;96889.63;5009383;28;20411;-46
2022/01/19 03:52:49;;;;;;;11.60;4.55;;;;;;;-1.37;85.24;96889.97;5006960;28;20129;-48
2022/01/19 03:55:16;;;;;;;12.85;4.65;;;;;;;-1.95;88.81;96886.25;4991378;28;20042;-48
2022/01/19 03:57:42;;;;;;;11.48;4.75;;;;;;;-2.01;89.27;96882.69;4991258;28;20121;-47
2022/01/19 04:00:11;;;;;;;12.48;5.50;;;;;;;-1.78;88.51;96889.88;5004309;28;20479;-46
2022/01/19 04:02:42;;;;;;;12.90;5.25;;;;;;;-2.02;89.25;96896.16;4999832;28;20088;-48
2022/01/19 04:05:18;;;;;;;11.52;4.93;;;;;;;-2.31;90.59;96898.63;4994608;28;20052;-46
2022/01/19 04:07:45;;;;;;;11.35;4.90;;;;;;;-2.37;92.08;96897.72;4995941;28;20097;-46
2022/01/19 04:10:12;;;;;;;12.15;4.65;;;;;;;-2.78;92.93;96909.06;5008875;28;20541;-46
2022/01/19 04:12:46;;;;;;;10.73;5.65;;;;;;;-2.72;94.32;96904.72;5011359;28;20483;-46
2022/01/19 04:15:15;;;;;;;11.20;5.30;;;;;;;-2.51;92.98;96920.13;5011660;28;20046;-48
2022/01/19 04:17:50;;;;;;;13.95;6.95;;;;;;;-2.19;92.61;96919.88;4984979;28;20536;-50
2022/01/19 04:20:20;;;;;;;13.82;6.05;;;;;;;-2.17;92.94;96926.59;5006125;28;20483;-49
2022/01/19 04:22:52;;;;;;;14.30;5.65;;;;;;;-2.26;93.69;96932.44;4991913;28;20076;-45
2022/01/19 04:25:19;;;;;;;11.23;6.07;;;;;;;-2.22;93.17;96917.69;4991256;28;20076;-49
2022/01/19 04:27:47;;;;;;;14.27;6.00;;;;;;;-1.97;91.79;96914.88;5009377;28;20057;-45
2022/01/19 04:30:15;;;;;;;12.43;5.93;;;;;;;-1.26;87.58;96918.38;4994125;28;20406;-48
2022/01/19 04:33:01;;;;;;;14.38;5.43;;;;;;;-1.58;89.50;96918.72;5006330;28;20116;-48
2022/01/19 04:35:44;;;;;;;12.05;5.63;;;;;;;-1.64;90.17;96916.97;4991119;28;20124;-47
2022/01/19 04:43:53;;;;;;;14.52;5.88;;;;;;;-1.20;89.51;96912.94;5002514;28;20054;-45
2022/01/19 05:05:46;;;;;;;15.95;6.63;;;;;;;-0.97;87.61;96874.09;4995761;28;20112;-47
2022/01/19 05:08:45;;;;;;;15.80;7.30;;;;;;;-0.93;87.43;96872.56;4995584;28;20051;-48
2022/01/19 05:13:52;;;;;;;15.23;6.80;;;;;;;-1.78;92.58;96865.19;5010774;28;20038;-45
2022/01/19 05:16:24;;;;;;;13.90;6.68;;;;;;;-1.39;90.64;96870.81;4994400;28;20467;-45
2022/01/19 05:18:52;;;;;;;15.70;7.47;;;;;;;-0.88;86.98;96864.69;4995454;28;20046;-46
2022/01/19 05:21:20;;;;;;;17.48;6.95;;;;;;;-1.00;87.39;96861.28;4994521;28;20503;-50
2022/01/19 05:24:07;;;;;;;17.38;7.40;;;;;;;-0.78;85.24;96867.56;5013544;28;20054;-47
2022/01/19 05:26:37;;;;;;;17.23;8.27;;;;;;;-0.71;84.68;96859.44;5013981;28;20045;-51
2022/01/19 05:29:05;;;;;;;17.48;7.90;;;;;;;-0.71;84.82;96856.78;5013519;28;20045;-46
2022/01/19 05:31:32;;;;;;;16.63;6.95;;;;;;;-0.69;85.40;96859.19;5008608;28;20360;-51
2022/01/19 05:34:00;;;;;;;16.17;8.13;;;;;;;-0.62;85.27;96859.84;4994088;28;20459;-48
2022/01/19 05:36:35;;;;;;;16.77;7.53;;;;;;;-1.50;89.78;96856.50;5012094;28;20058;-48
2022/01/19 05:39:31;;;;;;;14.55;7.07;;;;;;;-0.71;86.87;96854.94;5018020;28;20100;-47
2022/01/19 05:42:15;;;;;;;15.40;7.15;;;;;;;-1.11;87.64;96867.41;4993396;28;20129;-50
2022/01/19 05:44:45;;;;;;;20.80;7.90;;;;;;;-1.76;91.75;96858.59;4994055;28;20137;-46
2022/01/19 05:47:17;;;;;;;14.50;7.13;;;;;;;-1.22;89.30;96840.66;5013271;28;20140;-46
2022/01/19 05:49:44;;;;;;;15.18;7.32;;;;;;;-0.64;86.17;96856.63;5010630;28;20041;-49
2022/01/19 05:52:14;;;;;;;16.17;7.35;;;;;;;-1.05;87.47;96855.84;4993315;28;20045;-46
2022/01/19 05:54:41;;;;;;;14.55;7.47;;;;;;;-0.75;87.08;96843.16;5010049;28;20050;-50
2022/01/19 05:57:10;;;;;;;20.10;7.38;;;;;;;-1.01;88.42;96838.38;5012244;28;20080;-48
2022/01/19 05:59:42;;;;;;;13.50;7.22;;;;;;;-0.68;87.34;96842.19;5013922;28;20046;-45
2022/01/19 06:02:10;;;;;;;15.55;7.32;;;;;;;-1.43;90.71;96831.47;5011314;28;20061;-47
2022/01/19 06:04:37;;;;;;;14.85;7.85;;;;;;;-0.78;89.06;96838.31;5012951;28;20480;-45
2022/01/19 06:07:29;;;;;;;19.10;8.70;;;;;;;-0.27;86.04;96828.56;5013618;28;20052;-47
2022/01/19 06:10:05;;;;;;;20.25;7.90;;;;;;;-0.72;88.81;96840.00;5012389;28;20380;-47
2022/01/19 06:12:39;;;;;;;17.08;9.05;;;;;;;-0.50;87.69;96831.38;4977769;28;20141;-50
2022/01/19 06:15:07;;;;;;;20.65;8.95;;;;;;;-0.22;85.78;96829.72;4993294;28;20051;-44
2022/01/19 06:17:34;;;;;;;19.30;9.80;;;;;;;-0.78;88.65;96826.88;4993187;28;20555;-45
2022/01/19 06:20:03;;;;;;;21.02;9.95;;;;;;;-0.40;87.97;96834.19;5001361;28;20045;-49
2022/01/19 06:22:31;;;;;;;22.23;10.32;;;;;;;-0.53;87.41;96829.19;5008058;28;20089;-44
2022/01/19 06:24:58;;;;;;;21.30;10.07;;;;;;;-0.61;87.97;96813.63;4994286;28;20080;-44
2022/01/19 06:27:26;;;;;;;22.70;11.20;;;;;;;-0.43;87.24;96813.41;4993093;28;20504;-45
2022/01/19 06:29:53;;;;;;;30.55;11.45;;;;;;;-0.58;88.42;96816.63;4976741;28;20118;-45
2022/01/19 06:32:20;;;;;;;21.50;11.10;;;;;;;-0.50;87.48;96807.44;4992805;28;20042;-46
2022/01/19 06:34:47;;;;;;;24.73;12.80;;;;;;;-0.75;89.00;96821.06;5001748;28;20511;-50
2022/01/19 06:37:20;;;;;;;26.33;12.93;;;;;;;-0.74;89.92;96820.06;5013704;28;20034;-47
2022/01/19 06:39:54;;;;;;;24.95;11.23;;;;;;;-0.52;88.84;96801.53;5008051;28;20070;-49
2022/01/19 06:42:22;;;;;;;23.98;12.48;;;;;;;-0.49;89.77;96811.69;4992146;28;20046;-46
2022/01/19 06:44:49;;;;;;;25.08;11.85;;;;;;;-0.40;89.09;96809.47;5011572;28;20042;-46
2022/01/19 06:47:16;;;;;;;26.13;12.85;;;;;;;-0.63;89.72;96807.75;5012027;28;20053;-45
2022/01/19 06:49:43;;;;;;;23.08;11.63;;;;;;;-0.83;91.47;96811.66;5007776;28;20444;-45
2022/01/19 06:52:12;;;;;;;23.45;12.65;;;;;;;-0.33;88.98;96810.09;4993206;28;20125;-44
2022/01/19 06:54:39;;;;;;;27.73;12.95;;;;;;;-0.18;88.22;96818.34;5010778;28;20038;-45
2022/01/19 06:57:06;;;;;;;27.27;13.02;;;;;;;0.00;86.66;96817.31;5012023;28;20053;-46
2022/01/19 06:59:37;;;;;;;29.30;13.52;;;;;;;-0.36;88.81;96808.72;5011615;28;20077;-46
2022/01/19 07:02:28;;;;;;;26.55;12.30;;;;;;;-0.63;90.44;96805.88;4997680;28;20530;-45
2022/01/19 07:05:00;;;;;;;25.58;12.48;;;;;;;-0.67;90.37;96807.41;4994264;28;20042;-46
2022/01/19 07:07:40;;;;;;;24.70;13.57;;;;;;;-0.56;90.30;96795.09;5013362;28;20050;-44
2022/01/19 07:10:07;;;;;;;26.70;13.20;;;;;;;-0.35;91.05;96797.06;5011785;28;20127;-47
2022/01/19 07:12:37;;;;;;;28.83;12.52;;;;;;;-1.16;93.83;96792.97;5008122;28;20043;-44
2022/01/19 07:15:06;;;;;;;23.50;12.63;;;;;;;-0.38;90.84;96780.78;4992031;28;20053;-45
2022/01/19 07:17:35;;;;;;;26.08;12.68;;;;;;;0.06;88.64;96789.69;5026919;28;20045;-45
2022/01/19 07:20:03;;;;;;;28.10;14.38;;;;;;;-0.13;88.07;96791.00;5006891;28;20049;-46
2022/01/19 07:22:31;;;;;;;24.17;12.30;;;;;;;-0.56;91.04;96782.63;4995129;28;20049;-48
2022/01/19 07:25:01;;;;;;;23.10;12.40;;;;;;;-1.05;93.14;96789.44;4991795;28;20038;-50
2022/01/19 07:27:28;;;;;;;22.55;12.05;;;;;;;-0.68;92.19;96789.03;5007950;28;20042;-48
2022/01/19 07:29:55;;;;;;;26.20;13.80;;;;;;;-0.68;91.76;96795.19;4999963;28;20046;-49
2022/01/19 07:32:28;;;;;;;26.52;11.60;;;;;;;-1.03;92.42;96790.03;4991021;28;20038;-52
2022/01/19 07:34:56;;;;;;;26.95;12.57;;;;;;;-0.53;91.65;96791.97;4991737;28;20046;-47
2022/01/19 07:37:23;;;;;;;27.25;14.20;;;;;;;-0.30;89.39;96786.50;4994252;28;20501;-52
2022/01/19 07:39:50;;;;;;;25.45;12.10;;;;;;;-0.35;89.26;96775.78;5010154;28;20037;-51
2022/01/19 07:42:17;;;;;;;26.27;14.65;;;;;;;-0.29;88.86;96776.69;5010718;28;20073;-50
2022/01/19 07:45:03;;;;;;;25.92;13.45;;;;;;;0.03;88.28;96773.41;5012050;28;20060;-48
2022/01/19 07:47:46;;;;;;;27.65;13.35;;;;;;;-0.07;88.45;96782.06;5010622;28;20069;-47
2022/01/19 07:50:25;;;;;;;25.83;12.27;;;;;;;-0.62;90.43;96764.16;5010676;28;20474;-48
2022/01/19 07:52:55;;;;;;;28.60;14.20;;;;;;;-0.65;91.83;96768.13;5006786;28;20042;-45
2022/01/19 07:55:34;;;;;;;24.90;12.85;;;;;;;-0.22;89.06;96772.00;5011561;28;20096;-47
2022/01/19 07:58:20;;;;;;;28.85;13.98;;;;;;;-0.10;87.84;96763.91;5007054;28;20038;-49
2022/01/19 08:01:00;;;;;;;29.95;13.20;;;;;;;-0.18;88.30;96777.66;5009382;28;20120;-51
2022/01/19 08:03:42;;;;;;;26.02;13.10;;;;;;;-0.30;88.99;96769.75;5006968;28;20080;-48
2022/01/19 08:06:17;;;;;;;28.27;13.48;;;;;;;-0.75;91.87;96778.56;5010870;28;20128;-52
2022/01/19 08:08:45;;;;;;;26.52;14.85;;;;;;;-0.23;88.63;96773.03;5013318;28;20511;-48
2022/01/19 08:11:13;;;;;;;26.95;14.30;;;;;;;-0.43;89.84;96760.22;5029773;28;20037;-48
2022/01/19 08:13:44;;;;;;;28.77;14.73;;;;;;;-0.27;88.50;96756.75;5009821;28;20399;-49
2022/01/19 08:16:10;;;;;;;28.30;13.65;;;;;;;-0.11;88.13;96754.34;5010764;28;20042;-48
2022/01/19 08:18:38;;;;;;;26.20;13.75;;;;;;;-0.13;88.37;96759.09;5010261;28;20459;-49
2022/01/19 08:21:05;;;;;;;25.95;13.93;;;;;;;0.01;88.03;96754.25;5013987;28;20406;-48
2022/01/19 08:23:43;;;;;;;26.23;13.23;;;;;;;-0.01;88.17;96767.78;4993398;28;20069;-48
2022/01/19 08:26:15;;;;;;;26.95;13.73;;;;;;;-0.10;87.71;96759.44;5006061;28;20046;-49
2022/01/19 08:28:44;;;;;;;23.67;12.27;;;;;;;0.13;86.93;96755.75;5022687;28;20050;-49
2022/01/19 08:31:12;;;;;;;24.73;13.52;;;;;;;0.25;86.80;96744.19;4995535;28;20566;-48
2022/01/19 08:33:58;;;;;;;27.10;14.00;;;;;;;0.33;86.86;96744.59;4992402;28;20555;-46
2022/01/19 08:36:44;;;;;;;25.65;13.73;;;;;;;-0.15;88.50;96745.25;4998252;28;20410;-46
2022/01/19 08:39:21;;;;;;;27.33;13.60;;;;;;;0.12;88.09;96740.81;5006192;28;20129;-48
2022/01/19 08:41:49;;;;;;;26.95;13.57;;;;;;;-0.11;89.52;96743.69;5001099;28;20483;-45
2022/01/19 08:44:17;;;;;;;29.67;14.05;;;;;;;0.05;89.06;96736.75;5009996;28;20092;-47
2022/01/19 08:46:52;;;;;;;25.83;13.48;;;;;;;0.42;86.02;96735.13;5010651;28;20482;-45
2022/01/19 08:49:57;;;;;;;25.85;13.75;;;;;;;0.58;84.77;96738.75;5005947;28;20526;-48
2022/01/19 08:52:46;;;;;;;26.17;14.90;;;;;;;0.18;87.11;96728.41;5009023;28;20061;-51
2022/01/19 08:55:24;;;;;;;23.05;13.25;;;;;;;0.35;86.52;96731.81;5010399;28;20060;-49
2022/01/19 08:57:51;;;;;;;23.95;12.93;;;;;;;-0.48;89.91;96742.34;5010762;28;20045;-48
2022/01/19 09:00:20;;;;;;;26.23;13.10;;;;;;;-0.36;90.80;96742.25;5011324;28;20034;-51
2022/01/19 09:02:47;;;;;;;26.60;14.77;;;;;;;-0.21;90.33;96736.38;5009979;28;20041;-50
2022/01/19 09:05:15;;;;;;;24.60;13.93;;;;;;;-0.22;90.05;96744.63;5011193;28;20073;-49
2022/01/19 09:07:42;;;;;;;26.23;14.00;;;;;;;0.65;86.30;96734.06;5011053;28;20550;-49
2022/01/19 09:10:11;;;;;;;28.80;13.60;;;;;;;0.27;87.62;96734.91;5010941;28;20137;-46
2022/01/19 09:12:38;;;;;;;27.30;13.82;;;;;;;0.86;85.24;96735.06;5009966;28;20054;-46
2022/01/19 09:15:07;;;;;;;22.73;12.60;;;;;;;0.93;84.18;96730.34;5011624;28;20092;-52
2022/01/19 09:17:34;;;;;;;24.90;13.85;;;;;;;1.02;83.27;96730.72;5009906;28;20042;-48
2022/01/19 09:20:06;;;;;;;24.80;12.52;;;;;;;1.16;82.54;96729.22;5008936;28;20045;-49
2022/01/19 09:22:33;;;;;;;24.92;13.05;;;;;;;1.34;81.63;96724.63;5003133;28;20133;-50
2022/01/19 09:25:04;;;;;;;22.50;11.82;;;;;;;1.46;80.70;96721.75;5003188;28;20479;-47
2022/01/19 09:27:31;;;;;;;24.52;13.25;;;;;;;1.45;80.40;96726.28;5011493;28;20046;-49
2022/01/19 09:29:58;;;;;;;21.98;12.68;;;;;;;1.23;81.25;96714.91;5011110;28;20716;-47
2022/01/19 09:32:26;;;;;;;22.60;12.30;;;;;;;0.96;81.29;96706.94;4998172;28;20046;-46
2022/01/19 09:35:05;;;;;;;23.13;12.18;;;;;;;1.37;80.81;96714.25;5011074;28;20046;-51
2022/01/19 09:37:34;;;;;;;31.67;16.23;;;;;;;1.10;81.75;96708.13;5014473;28;20076;-47
2022/01/19 09:40:21;;;;;;;29.70;15.98;;;;;;;0.97;82.09;96698.66;5006358;28;20060;-46
2022/01/19 09:42:50;;;;;;;23.75;13.50;;;;;;;0.69;83.19;96695.22;5013644;28;20145;-47
2022/01/19 09:45:17;;;;;;;23.80;11.88;;;;;;;0.45;83.16;96693.84;5014485;28;20128;-48
2022/01/19 09:47:43;;;;;;;28.27;13.35;;;;;;;0.73;83.46;96692.03;5003336;28;20050;-47
2022/01/19 09:50:10;;;;;;;27.23;13.93;;;;;;;0.68;83.77;96690.94;5013694;28;20041;-47
2022/01/19 09:52:38;;;;;;;23.38;12.45;;;;;;;0.23;85.04;96678.72;5008992;28;20047;-47
2022/01/19 09:55:06;;;;;;;30.60;14.20;;;;;;;0.84;84.08;96683.09;5004547;28;20522;-46
2022/01/19 09:57:34;;;;;;;24.88;12.23;;;;;;;0.93;83.20;96676.25;5009521;28;20085;-47
2022/01/19 10:00:01;;;;;;;22.75;12.30;;;;;;;0.96;82.78;96675.75;5012374;28;20145;-48
2022/01/19 10:02:38;;;;;;;22.38;12.15;;;;;;;0.88;83.08;96677.03;5008654;28;20038;-46
2022/01/19 10:05:09;;;;;;;22.48;12.07;;;;;;;1.09;81.63;96671.88;5014020;28;20099;-49
2022/01/19 10:07:36;;;;;;;23.73;12.02;;;;;;;1.44;80.45;96671.38;5014348;28;20125;-47
2022/01/19 10:10:08;;;;;;;26.38;12.52;;;;;;;1.59;80.25;96670.66;5011755;28;20053;-48
2022/01/19 10:18:11;;;;;;;23.17;12.85;;;;;;;1.49;79.81;96652.72;5008680;28;20219;-47
2022/01/19 10:20:38;;;;;;;25.30;11.52;;;;;;;1.46;80.52;96631.91;5008072;28;20046;-46
2022/01/19 10:23:36;;;;;;;25.05;12.10;;;;;;;1.02;81.60;96637.44;5009676;28;20085;-47
2022/01/19 10:26:08;;;;;;;21.05;10.85;;;;;;;1.02;80.81;96632.13;5014159;28;20053;-49
2022/01/19 10:29:10;;;;;;;19.27;10.77;;;;;;;1.51;80.25;96623.94;5014265;28;20422;-46
2022/01/19 10:31:40;;;;;;;19.75;11.27;;;;;;;1.69;79.47;96620.06;4996870;28;20050;-48
2022/01/19 10:34:19;;;;;;;23.33;12.50;;;;;;;1.87;78.76;96613.47;5004629;28;20050;-50
2022/01/19 10:36:57;;;;;;;23.05;13.13;;;;;;;1.73;78.83;96618.47;4998747;28;20133;-47
2022/01/19 10:39:38;;;;;;;20.27;11.57;;;;;;;1.70;78.55;96610.19;4995926;28;20046;-52
2022/01/19 10:42:12;;;;;;;24.92;11.80;;;;;;;1.10;80.92;96607.66;5009794;28;20050;-47
2022/01/19 10:44:40;;;;;;;22.50;11.88;;;;;;;1.57;79.59;96593.56;5013122;28;20136;-47
2022/01/19 10:47:40;;;;;;;24.00;11.50;;;;;;;1.42;79.42;96585.47;5012706;28;20562;-49
2022/01/19 10:50:31;;;;;;;22.50;12.55;;;;;;;2.01;78.96;96584.44;5000055;28;20136;-48
2022/01/19 10:53:05;;;;;;;22.13;12.15;;;;;;;2.22;77.74;96575.44;4996676;28;20054;-50
2022/01/19 10:55:39;;;;;;;19.08;10.93;;;;;;;1.96;76.95;96577.22;5010294;28;20045;-48
2022/01/19 10:58:15;;;;;;;22.42;11.52;;;;;;;2.22;77.51;96569.31;5013108;28;20104;-48
2022/01/19 11:00:54;;;;;;;20.08;10.85;;;;;;;2.55;76.90;96562.69;5007644;28;20060;-51
2022/01/19 11:03:25;;;;;;;25.48;12.32;;;;;;;2.87;75.43;96564.31;5005281;28;20092;-46
2022/01/19 11:05:59;;;;;;;25.27;12.55;;;;;;;2.70;75.78;96569.94;5006433;28;20151;-48
2022/01/19 11:08:28;;;;;;;19.90;11.35;;;;;;;2.83;75.37;96565.91;5002708;28;20054;-50
2022/01/19 11:10:58;;;;;;;17.80;10.32;;;;;;;2.49;74.06;96564.53;5006373;28;20372;-49
2022/01/19 11:13:30;;;;;;;19.80;11.18;;;;;;;2.97;73.63;96556.28;5005418;28;20038;-49
2022/01/19 11:16:00;;;;;;;20.23;12.02;;;;;;;3.10;72.31;96554.94;5012908;28;20141;-49
2022/01/19 11:18:30;;;;;;;22.85;11.02;;;;;;;3.33;73.07;96541.00;5013133;28;20129;-47
2022/01/19 11:21:07;;;;;;;16.88;9.68;;;;;;;3.12;71.54;96539.44;5003979;28;20049;-47
2022/01/19 11:24:01;;;;;;;17.42;10.40;;;;;;;3.15;70.28;96522.84;5009581;28;20403;-50
2022/01/19 11:26:31;;;;;;;17.92;9.88;;;;;;;3.27;70.29;96528.72;5013077;28;20104;-48
2022/01/19 11:29:18;;;;;;;16.98;10.43;;;;;;;3.45;69.26;96527.34;5011079;28;20495;-48
2022/01/19 11:31:46;;;;;;;18.23;10.13;;;;;;;3.87;70.11;96521.56;5005224;28;20038;-47
2022/01/19 11:34:13;;;;;;;17.63;10.30;;;;;;;4.44;67.42;96517.50;5011219;28;20052;-48
2022/01/19 11:36:43;;;;;;;17.30;10.25;;;;;;;5.64;64.93;96516.97;5012820;28;20042;-47
2022/01/19 11:39:21;;;;;;;16.90;9.27;;;;;;;6.22;62.21;96510.63;5011068;28;20045;-48
2022/01/19 11:41:59;;;;;;;15.85;8.95;;;;;;;4.83;63.13;96508.63;5007600;28;20057;-49
2022/01/19 11:44:31;;;;;;;16.95;9.30;;;;;;;5.17;63.87;96507.81;5007427;28;20414;-47
2022/01/19 11:47:24;;;;;;;15.07;8.23;;;;;;;4.22;63.78;96496.50;5002450;28;20125;-47
2022/01/19 11:50:05;;;;;;;12.18;8.25;;;;;;;3.94;65.97;96506.00;5000628;28;20156;-50
2022/01/19 11:52:35;;;;;;;15.50;8.02;;;;;;;5.09;63.05;96508.41;4995457;28;20033;-46
2022/01/19 11:55:22;;;;;;;13.82;8.50;;;;;;;4.64;62.87;96494.31;5011608;28;20042;-49
2022/01/19 11:58:09;;;;;;;14.23;7.95;;;;;;;6.16;58.87;96490.31;5012640;28;20052;-51
2022/01/19 12:00:36;;;;;;;11.57;7.68;;;;;;;5.84;58.29;96475.66;5008442;28;20042;-47
2022/01/19 12:03:21;;;;;;;15.27;8.15;;;;;;;5.73;59.17;96477.66;5004323;28;20038;-47
2022/01/19 12:06:08;;;;;;;13.48;8.35;;;;;;;7.49;54.62;96462.81;5011894;28;20046;-50
2022/01/19 12:08:38;;;;;;;14.23;8.90;;;;;;;7.97;52.22;96466.97;5012073;28;20121;-48
2022/01/19 12:11:22;;;;;;;13.27;7.97;;;;;;;6.84;56.58;96454.06;5011817;28;20042;-46
2022/01/19 12:14:36;;;;;;;13.52;8.40;;;;;;;6.11;58.71;96450.88;5011856;28;20049;-48
2022/01/19 12:17:24;;;;;;;12.55;8.68;;;;;;;5.23;61.76;96442.28;5005022;28;20504;-50
2022/01/19 12:19:52;;;;;;;14.00;7.63;;;;;;;6.92;56.40;96437.22;4992516;28;20097;-48
2022/01/19 12:22:26;;;;;;;16.17;8.95;;;;;;;4.97;60.46;96435.56;4991777;28;20048;-51
2022/01/19 12:25:06;;;;;;;15.00;8.73;;;;;;;5.66;59.50;96439.63;5011291;28;20045;-48
2022/01/19 12:27:36;;;;;;;12.85;8.32;;;;;;;5.49;58.72;96421.34;5011657;28;20145;-50
2022/01/19 12:30:16;;;;;;;14.05;8.15;;;;;;;6.36;58.49;96422.03;5006679;28;20046;-47
2022/01/19 12:32:44;;;;;;;14.80;9.00;;;;;;;6.53;57.38;96425.78;4996599;28;20037;-50
2022/01/19 12:35:17;;;;;;;12.63;7.97;;;;;;;5.49;57.93;96415.13;5011182;28;20073;-47
2022/01/19 12:37:55;;;;;;;13.80;8.20;;;;;;;5.65;57.92;96400.44;5011273;28;20156;-47
2022/01/19 12:40:33;;;;;;;12.43;8.60;;;;;;;6.15;57.70;96397.38;5007333;28;20054;-51
2022/01/19 12:43:06;;;;;;;13.73;8.57;;;;;;;5.45;58.44;96404.19;5010172;28;20149;-53
2022/01/19 12:45:47;;;;;;;13.15;8.15;;;;;;;5.09;60.10;96398.44;5007380;28;20077;-50
2022/01/19 12:48:43;;;;;;;13.73;8.98;;;;;;;5.28;59.90;96406.53;4995653;28;20081;-50
2022/01/19 12:51:40;;;;;;;15.85;9.27;;;;;;;5.22;60.36;96399.63;5010585;28;20048;-54
2022/01/19 12:54:11;;;;;;;14.43;8.85;;;;;;;5.23;60.65;96388.63;5010995;28;20085;-45
2022/01/19 12:57:05;;;;;;;13.95;7.63;;;;;;;4.96;61.17;96385.72;5003438;28;20038;-42
2022/01/19 12:59:34;;;;;;;12.05;8.15;;;;;;;5.75;59.82;96368.09;5000804;28;20076;-47
2022/01/19 13:02:01;;;;;;;15.05;8.40;;;;;;;5.79;57.96;96366.44;5009841;28;20069;-51
2022/01/19 13:04:31;;;;;;;15.15;8.35;;;;;;;4.96;60.98;96366.94;5012185;28;20460;-47